This is the latest recevied weather packets stored in our database for station/object KE8WAY. If no packets are shown the sender has not sent any weather packets the latest 10 day(s).
| Time | Temp. | Humidity | Pressure | Rain* | Wind** | Luminosity | Snow |
|---|---|---|---|---|---|---|---|
| 1777935415 | 23.89° C | 40% | 999.6 hPa | 0 mm | - | 68 W/m² | - |
| 1777935110 | 23.89° C | 41% | 999.7 hPa | 0 mm | - | 79 W/m² | - |
| 1777934808 | 23.89° C | 41% | 999.7 hPa | 0 mm | - | 88 W/m² | - |
| 1777934504 | 23.89° C | 40% | 999.9 hPa | 0 mm | - | 100 W/m² | - |
| 1777934201 | 24.44° C | 40% | 999.7 hPa | 0 mm | - | 106 W/m² | - |
| 1777933897 | 25° C | 41% | 999.8 hPa | 0 mm | - | 88 W/m² | - |
| 1777933594 | 24.44° C | 41% | 999.7 hPa | 0 mm | - | 101 W/m² | - |
| 1777933291 | 24.44° C | 43% | 999.7 hPa | 0 mm | - | 76 W/m² | - |
| 1777932988 | 25° C | 42% | 999.8 hPa | 0 mm | - | 261 W/m² | - |
| 1777932685 | 25° C | 44% | 1000 hPa | 0 mm | - | 275 W/m² | - |
| 1777932381 | 25° C | 42% | 999.8 hPa | 0 mm | - | 281 W/m² | - |
| 1777932080 | 25° C | 43% | 999.9 hPa | 0 mm | - | 362 W/m² | - |
| 1777931775 | 24.44° C | 44% | 1000.2 hPa | 0 mm | - | 121 W/m² | - |
| 1777931473 | 24.44° C | 42% | 1000.2 hPa | 0 mm | - | 96 W/m² | - |
| 1777931168 | 25° C | 42% | 1000.1 hPa | 0 mm | - | 399 W/m² | - |
| 1777930865 | 25° C | 42% | 1000.2 hPa | 0 mm | - | 420 W/m² | - |
| 1777930562 | 25° C | 42% | 1000.1 hPa | 0 mm | - | 141 W/m² | - |
| 1777930259 | 23.89° C | 43% | 1000.5 hPa | 0 mm | - | 487 W/m² | - |
| 1777929954 | 23.89° C | 43% | 1000.5 hPa | 0 mm | - | 472 W/m² | - |
| 1777929652 | 24.44° C | 43% | 1000.3 hPa | 0 mm | - | 146 W/m² | - |
| 1777929349 | 23.89° C | 44% | 1000.4 hPa | 0 mm | - | 110 W/m² | - |
| 1777929046 | 25° C | 43% | 1000.3 hPa | 0 mm | - | 518 W/m² | - |
| 1777928742 | 25° C | 43% | 1000.7 hPa | 0 mm | - | 189 W/m² | - |
| 1777928439 | 25° C | 43% | 1000.7 hPa | 0 mm | - | 226 W/m² | - |
| 1777928137 | 25.56° C | 42% | 1000.6 hPa | 0 mm | - | 550 W/m² | - |
* Rain latest hour (hover to see other rain measurements)
** Current wind speed in m/s (hover to see current wind gust speed)